Terminal Aerodrome Forecast
Issued by NWS Cleveland, OH

Home | Current Version | Previous Version | Graphics & Text | Print | Product List | Glossary On
Versions: 1 2 3 4 5 6 7 8 9 10 11 12 13 14 15 16 17 18 19 20 21 22 23 24 25 26 27 28 29 30
000
FTUS41 KCLE 192048 AAD
TAFCLE
TAF AMD
KCLE 192048Z 1921/2024 28014G22KT P6SM VCSH OVC035
      TEMPO 1921/1924 1/2SM SHSN OVC025
     FM200200 27014G22KT P6SM BKN040
     FM200900 24013KT P6SM BKN090
     FM201100 22013KT P6SM SCT140
     FM202200 22018G28KT P6SM FEW200=

USA.gov is the U.S. government's official web portal to all federal, state and local government web resources and services.